Time,TemperatureF,DewpointF,PressureIn,WindDirection,WindDirectionDegrees,WindSpeedMPH,WindSpeedGustMPH,Humidity,HourlyPrecipIn,Conditions,Clouds,dailyrainin,SoftwareType,DateUTC
2013-03-03 00:00:00,30.0,19.7,29.69,NNW,336,2.0,4.0,65,0.00,,OVC080,0.00,VWS V14.01,2013-03-03 05:00:00,
2013-03-03 00:05:00,29.8,19.5,29.69,North,358,0.0,5.0,65,0.00,,OVC080,0.00,VWS V14.01,2013-03-03 05:05:00,
2013-03-03 00:10:00,29.7,19.4,29.69,North,3,8.0,8.0,65,0.00,,OVC080,0.00,VWS V14.01,2013-03-03 05:10:00,
2013-03-03 00:15:00,29.7,19.8,29.69,North,349,1.0,4.0,66,0.00,,OVC080,0.00,VWS V14.01,2013-03-03 05:15:00,
2013-03-03 00:20:00,29.5,19.6,29.69,NW,316,2.0,5.0,66,0.00,,OVC080,0.00,VWS V14.01,2013-03-03 05:20:00,
2013-03-03 00:25:00,29.4,19.1,29.69,North,357,0.0,4.0,65,0.00,,OVC080,0.00,VWS V14.01,2013-03-03 05:25:00,
2013-03-03 00:30:00,29.3,19.4,29.69,NW,310,2.0,4.0,66,0.00,,OVC080,0.00,VWS V14.01,2013-03-03 05:30:00,
2013-03-03 00:35:00,29.3,19.4,29.69,NNW,344,7.0,7.0,66,0.00,,OVC080,0.00,VWS V14.01,2013-03-03 05:35:00,
2013-03-03 00:40:00,29.3,19.4,29.69,North,358,4.0,8.0,66,0.00,,OVC080,0.00,VWS V14.01,2013-03-03 05:40:00,
2013-03-03 00:45:00,29.3,19.4,29.69,NNW,345,0.0,4.0,66,0.00,,OVC080,0.00,VWS V14.01,2013-03-03 05:45:00,
2013-03-03 00:50:00,29.0,19.4,29.69,NW,325,0.0,6.0,67,0.00,,OVC080,0.00,VWS V14.01,2013-03-03 05:50:00,
2013-03-03 00:55:00,29.0,19.4,29.69,NW,315,2.0,6.0,67,0.00,,OVC090,0.00,VWS V14.01,2013-03-03 05:55:00,
2013-03-03 01:00:00,28.8,19.2,29.69,NNW,329,1.0,4.0,67,0.00,,OVC090,0.00,VWS V14.01,2013-03-03 06:00:00,
2013-03-03 01:05:00,28.8,19.2,29.69,NW,317,0.0,4.0,67,0.00,,OVC090,0.00,VWS V14.01,2013-03-03 06:05:00,
2013-03-03 01:10:00,28.8,19.2,29.69,North,7,6.0,6.0,67,0.00,,OVC090,0.00,VWS V14.01,2013-03-03 06:10:00,
2013-03-03 01:15:00,28.8,19.2,29.69,NNW,328,3.0,5.0,67,0.00,,OVC090,0.00,VWS V14.01,2013-03-03 06:15:00,
2013-03-03 01:20:00,29.0,19.8,29.69,NW,314,0.0,9.0,68,0.00,,OVC090,0.00,VWS V14.01,2013-03-03 06:20:00,
2013-03-03 01:25:00,29.0,19.4,29.69,NW,313,0.0,4.0,67,0.00,,OVC090,0.00,VWS V14.01,2013-03-03 06:25:00,
2013-03-03 01:30:00,28.8,19.2,29.69,NNW,331,0.0,5.0,67,0.00,,OVC090,0.00,VWS V14.01,2013-03-03 06:30:00,
2013-03-03 01:35:00,28.8,19.6,29.69,North,358,0.0,4.0,68,0.00,,OVC090,0.00,VWS V14.01,2013-03-03 06:35:00,
2013-03-03 01:40:00,28.7,19.5,29.69,NNW,328,3.0,5.0,68,0.00,,OVC090,0.00,VWS V14.01,2013-03-03 06:40:00,
2013-03-03 01:45:00,28.7,19.5,29.69,North,352,0.0,2.0,68,0.00,,OVC090,0.00,VWS V14.01,2013-03-03 06:45:00,
2013-03-03 01:50:00,28.7,19.5,29.69,NW,321,0.0,5.0,68,0.00,,OVC090,0.00,VWS V14.01,2013-03-03 06:50:00,
2013-03-03 01:55:00,28.7,19.5,29.69,NW,306,2.0,6.0,68,0.00,,BKN090,0.00,VWS V14.01,2013-03-03 06:55:00,
2013-03-03 02:00:00,28.5,19.0,29.69,NW,307,5.0,11.0,67,0.00,,BKN090,0.00,VWS V14.01,2013-03-03 07:00:00,
2013-03-03 02:05:00,28.5,19.0,29.69,NW,325,0.0,4.0,67,0.00,,BKN090,0.00,VWS V14.01,2013-03-03 07:05:00,
2013-03-03 02:10:00,28.4,18.9,29.69,WNW,301,1.0,7.0,67,0.00,,BKN090,0.00,VWS V14.01,2013-03-03 07:10:00,
2013-03-03 02:15:00,28.2,18.3,29.69,WNW,302,2.0,6.0,66,0.00,,BKN090,0.00,VWS V14.01,2013-03-03 07:15:00,
2013-03-03 02:20:00,28.1,18.2,29.69,NW,324,1.0,8.0,66,0.00,,BKN090,0.00,VWS V14.01,2013-03-03 07:20:00,
2013-03-03 02:25:00,28.1,17.9,29.69,NNW,345,2.0,8.0,65,0.00,,BKN090,0.00,VWS V14.01,2013-03-03 07:25:00,
2013-03-03 02:30:00,27.9,17.7,29.69,NW,322,7.0,7.0,65,0.00,,BKN090,0.00,VWS V14.01,2013-03-03 07:30:00,
2013-03-03 02:35:00,27.9,17.7,29.68,NW,321,2.0,6.0,65,0.00,,FEW026,0.00,VWS V14.01,2013-03-03 07:35:00,
2013-03-03 02:40:00,27.8,17.2,29.68,NNW,336,0.0,9.0,64,0.00,,FEW026,0.00,VWS V14.01,2013-03-03 07:40:00,
2013-03-03 02:45:00,27.8,16.9,29.68,NNW,333,5.0,11.0,63,0.00,,FEW026,0.00,VWS V14.01,2013-03-03 07:45:00,
2013-03-03 02:50:00,27.8,17.2,29.67,WNW,283,6.0,7.0,64,0.00,,FEW026,0.00,VWS V14.01,2013-03-03 07:50:00,
2013-03-03 02:55:00,27.6,17.0,29.67,NW,312,0.0,5.0,64,0.00,,CLR,0.00,VWS V14.01,2013-03-03 07:55:00,
2013-03-03 03:00:00,27.5,16.9,29.67,NW,314,4.0,8.0,64,0.00,,CLR,0.00,VWS V14.01,2013-03-03 08:00:00,
2013-03-03 03:05:00,27.5,16.9,29.67,NW,317,0.0,7.0,64,0.00,,CLR,0.00,VWS V14.01,2013-03-03 08:05:00,
2013-03-03 03:10:00,27.5,16.6,29.67,NW,304,2.0,9.0,63,0.00,,CLR,0.00,VWS V14.01,2013-03-03 08:10:00,
2013-03-03 03:15:00,27.5,16.6,29.67,NW,317,9.0,13.0,63,0.00,,CLR,0.00,VWS V14.01,2013-03-03 08:15:00,
2013-03-03 03:20:00,27.3,16.4,29.67,NNW,338,1.0,5.0,63,0.00,,CLR,0.00,VWS V14.01,2013-03-03 08:20:00,
2013-03-03 03:25:00,27.2,16.3,29.67,NNW,329,0.0,5.0,63,0.00,,CLR,0.00,VWS V14.01,2013-03-03 08:25:00,
2013-03-03 03:30:00,27.2,16.3,29.67,NNW,347,4.0,7.0,63,0.00,,CLR,0.00,VWS V14.01,2013-03-03 08:30:00,
2013-03-03 03:35:00,27.2,16.6,29.67,NW,314,5.0,6.0,64,0.00,,SCT031,0.00,VWS V14.01,2013-03-03 08:35:00,
2013-03-03 03:40:00,27.2,16.3,29.67,NNW,327,0.0,6.0,63,0.00,,SCT031,0.00,VWS V14.01,2013-03-03 08:40:00,
2013-03-03 03:45:00,27.2,16.3,29.67,NNW,344,4.0,5.0,63,0.00,,SCT031,0.00,VWS V14.01,2013-03-03 08:45:00,
2013-03-03 03:50:00,27.2,15.9,29.67,NNW,338,1.0,9.0,62,0.00,,SCT031,0.00,VWS V14.01,2013-03-03 08:50:00,
2013-03-03 03:55:00,27.2,15.9,29.67,NW,315,0.0,6.0,62,0.00,,FEW031,0.00,VWS V14.01,2013-03-03 08:55:00,
2013-03-03 04:01:00,27.2,16.3,29.67,WNW,300,0.0,5.0,63,0.00,,FEW031,0.00,VWS V14.01,2013-03-03 09:01:00,
2013-03-03 04:06:00,27.0,16.1,29.67,NW,305,0.0,5.0,63,0.00,,FEW031,0.00,VWS V14.01,2013-03-03 09:06:00,
2013-03-03 04:11:00,27.0,16.1,29.67,NW,316,0.0,6.0,63,0.00,,FEW031,0.00,VWS V14.01,2013-03-03 09:11:00,
2013-03-03 04:16:00,26.9,16.0,29.67,West,279,2.0,3.0,63,0.00,,FEW031,0.00,VWS V14.01,2013-03-03 09:16:00,
2013-03-03 04:21:00,26.7,15.8,29.68,NW,308,4.0,5.0,63,0.00,,FEW031,0.00,VWS V14.01,2013-03-03 09:21:00,
2013-03-03 04:26:00,26.7,16.2,29.68,WNW,287,0.0,6.0,64,0.00,,FEW031,0.00,VWS V14.01,2013-03-03 09:26:00,
2013-03-03 04:31:00,26.6,16.1,29.68,WNW,293,0.0,7.0,64,0.00,,FEW031,0.00,VWS V14.01,2013-03-03 09:31:00,
2013-03-03 04:36:00,26.6,16.1,29.68,NW,307,0.0,6.0,64,0.00,,CLR,0.00,VWS V14.01,2013-03-03 09:36:00,
2013-03-03 04:41:00,26.6,16.1,29.68,NW,316,14.0,14.0,64,0.00,,CLR,0.00,VWS V14.01,2013-03-03 09:41:00,
2013-03-03 04:46:00,26.6,15.7,29.68,NW,326,0.0,7.0,63,0.00,,CLR,0.00,VWS V14.01,2013-03-03 09:46:00,
2013-03-03 04:51:00,26.6,15.7,29.69,NW,313,8.0,11.0,63,0.00,,CLR,0.00,VWS V14.01,2013-03-03 09:51:00,
2013-03-03 04:56:00,26.6,15.7,29.69,WNW,303,4.0,5.0,63,0.00,,CLR,0.00,VWS V14.01,2013-03-03 09:56:00,
2013-03-03 05:01:00,26.4,15.5,29.69,NW,306,2.0,5.0,63,0.00,,CLR,0.00,VWS V14.01,2013-03-03 10:01:00,
2013-03-03 05:06:00,26.4,15.5,29.69,NW,313,0.0,5.0,63,0.00,,CLR,0.00,VWS V14.01,2013-03-03 10:06:00,
2013-03-03 05:11:00,26.3,15.4,29.69,NNW,338,3.0,5.0,63,0.00,,CLR,0.00,VWS V14.01,2013-03-03 10:11:00,
2013-03-03 05:16:00,26.3,15.4,29.69,NNW,335,1.0,10.0,63,0.00,,CLR,0.00,VWS V14.01,2013-03-03 10:16:00,
2013-03-03 05:21:00,26.1,15.6,29.69,NW,319,2.0,7.0,64,0.00,,CLR,0.00,VWS V14.01,2013-03-03 10:21:00,
2013-03-03 05:26:00,26.1,15.6,29.69,NW,321,6.0,9.0,64,0.00,,CLR,0.00,VWS V14.01,2013-03-03 10:26:00,
2013-03-03 05:31:00,26.0,15.5,29.69,NNW,336,2.0,5.0,64,0.00,,CLR,0.00,VWS V14.01,2013-03-03 10:31:00,
2013-03-03 05:36:00,25.8,15.7,29.69,North,358,2.0,4.0,65,0.00,,CLR,0.00,VWS V14.01,2013-03-03 10:36:00,
2013-03-03 05:41:00,25.8,15.7,29.69,NW,318,4.0,4.0,65,0.00,,CLR,0.00,VWS V14.01,2013-03-03 10:41:00,
2013-03-03 05:46:00,25.8,15.7,29.69,WNW,293,1.0,9.0,65,0.00,,CLR,0.00,VWS V14.01,2013-03-03 10:46:00,
2013-03-03 05:51:00,25.7,15.6,29.69,NW,307,0.0,5.0,65,0.00,,CLR,0.00,VWS V14.01,2013-03-03 10:51:00,
2013-03-03 05:56:00,25.7,15.6,29.69,WNW,303,4.0,5.0,65,0.00,,CLR,0.00,VWS V14.01,2013-03-03 10:56:00,
2013-03-03 06:01:00,25.6,15.8,29.69,WNW,302,1.0,4.0,66,0.00,,CLR,0.00,VWS V14.01,2013-03-03 11:01:00,
2013-03-03 06:06:00,25.4,15.6,29.69,NNW,336,4.0,4.0,66,0.00,,CLR,0.00,VWS V14.01,2013-03-03 11:06:00,
2013-03-03 06:11:00,25.6,15.8,29.69,NW,316,0.0,1.0,66,0.00,,CLR,0.00,VWS V14.01,2013-03-03 11:11:00,
2013-03-03 06:16:00,25.4,15.6,29.69,NW,323,0.0,3.0,66,0.00,,CLR,0.00,VWS V14.01,2013-03-03 11:16:00,
2013-03-03 06:21:00,25.3,15.6,29.69,WNW,296,0.0,2.0,66,0.00,,CLR,0.00,VWS V14.01,2013-03-03 11:21:00,
2013-03-03 06:26:00,25.3,15.9,29.69,West,281,0.0,6.0,67,0.00,,CLR,0.00,VWS V14.01,2013-03-03 11:26:00,
2013-03-03 06:31:00,25.3,15.9,29.69,WNW,293,0.0,2.0,67,0.00,,CLR,0.00,VWS V14.01,2013-03-03 11:31:00,
2013-03-03 06:36:00,25.1,15.7,29.69,NW,309,0.0,2.0,67,0.00,,CLR,0.00,VWS V14.01,2013-03-03 11:36:00,
2013-03-03 06:41:00,25.1,16.0,29.69,NW,309,1.0,1.0,68,0.00,,CLR,0.00,VWS V14.01,2013-03-03 11:41:00,
2013-03-03 06:46:00,25.4,16.0,29.69,WNW,293,0.0,4.0,67,0.00,,CLR,0.00,VWS V14.01,2013-03-03 11:46:00,
2013-03-03 06:51:00,25.7,16.3,29.69,NW,304,0.0,4.0,67,0.00,,CLR,0.00,VWS V14.01,2013-03-03 11:51:00,
2013-03-03 06:56:00,25.7,16.3,29.69,NW,304,0.0,4.0,67,0.00,,BKN031,0.00,VWS V14.01,2013-03-03 11:56:00,
2013-03-03 07:01:00,25.8,16.4,29.69,NW,319,0.0,1.0,67,0.00,,BKN031,0.00,VWS V14.01,2013-03-03 12:01:00,
2013-03-03 07:06:00,26.0,16.6,29.70,NW,307,0.0,2.0,67,0.00,,BKN031,0.00,VWS V14.01,2013-03-03 12:06:00,
2013-03-03 07:11:00,26.0,16.6,29.70,NW,307,0.0,2.0,67,0.00,,BKN031,0.00,VWS V14.01,2013-03-03 12:11:00,
2013-03-03 07:16:00,26.0,16.6,29.70,NNW,329,0.0,5.0,67,0.00,,BKN031,0.00,VWS V14.01,2013-03-03 12:16:00,
2013-03-03 07:21:00,26.4,16.9,29.70,North,353,2.0,7.0,67,0.00,,BKN031,0.00,VWS V14.01,2013-03-03 12:21:00,
2013-03-03 07:26:00,26.9,17.4,29.70,NNW,327,0.0,1.0,67,0.00,,BKN031,0.00,VWS V14.01,2013-03-03 12:26:00,
2013-03-03 07:31:00,27.2,17.4,29.70,NNW,334,4.0,6.0,66,0.00,,BKN031,0.00,VWS V14.01,2013-03-03 12:31:00,
2013-03-03 07:36:00,27.6,17.4,29.70,WNW,303,0.0,14.0,65,0.00,,BKN031,0.00,VWS V14.01,2013-03-03 12:36:00,
2013-03-03 07:41:00,27.9,17.7,29.70,NNW,341,4.0,9.0,65,0.00,,BKN031,0.00,VWS V14.01,2013-03-03 12:41:00,
2013-03-03 07:46:00,28.2,17.6,29.70,NW,309,1.0,6.0,64,0.00,,BKN031,0.00,VWS V14.01,2013-03-03 12:46:00,
2013-03-03 07:51:00,28.5,17.5,29.70,NNW,345,5.0,10.0,63,0.00,,BKN031,0.00,VWS V14.01,2013-03-03 12:51:00,
2013-03-03 07:56:00,28.7,17.7,29.70,West,278,5.0,11.0,63,0.00,,BKN031,0.00,VWS V14.01,2013-03-03 12:56:00,
2013-03-03 08:01:00,28.5,17.1,29.70,NW,311,5.0,13.0,62,0.00,,BKN031,0.00,VWS V14.01,2013-03-03 13:01:00,
2013-03-03 08:06:00,28.7,17.7,29.70,West,269,1.0,5.0,63,0.00,,SCT031,0.00,VWS V14.01,2013-03-03 13:06:00,
2013-03-03 08:11:00,29.0,18.0,29.70,NW,317,0.0,8.0,63,0.00,,SCT031,0.00,VWS V14.01,2013-03-03 13:11:00,
2013-03-03 08:16:00,28.7,17.3,29.70,NNW,330,3.0,7.0,62,0.00,,SCT031,0.00,VWS V14.01,2013-03-03 13:16:00,
2013-03-03 08:21:00,28.8,17.8,29.70,NNW,345,2.0,7.0,63,0.00,,SCT031,0.00,VWS V14.01,2013-03-03 13:21:00,
2013-03-03 08:26:00,29.0,17.2,29.70,WNW,293,2.0,16.0,61,0.00,,SCT031,0.00,VWS V14.01,2013-03-03 13:26:00,
2013-03-03 08:31:00,29.1,17.3,29.70,NNW,345,1.0,11.0,61,0.00,,SCT031,0.00,VWS V14.01,2013-03-03 13:31:00,
2013-03-03 08:36:00,29.3,17.5,29.70,NW,321,5.0,9.0,61,0.00,,BKN033,0.00,VWS V14.01,2013-03-03 13:36:00,
2013-03-03 08:41:00,29.3,17.1,29.70,NW,316,5.0,7.0,60,0.00,,BKN033,0.00,VWS V14.01,2013-03-03 13:41:00,
2013-03-03 08:46:00,29.3,17.5,29.70,West,278,0.0,8.0,61,0.00,,BKN033,0.00,VWS V14.01,2013-03-03 13:46:00,
2013-03-03 08:51:00,29.4,17.2,29.70,NW,308,2.0,7.0,60,0.00,,BKN033,0.00,VWS V14.01,2013-03-03 13:51:00,
2013-03-03 08:56:00,29.4,17.2,29.70,NNW,331,7.0,13.0,60,0.00,,BKN085,0.00,VWS V14.01,2013-03-03 13:56:00,
2013-03-03 09:01:00,29.4,17.2,29.70,NNW,342,6.0,6.0,60,0.00,,BKN085,0.00,VWS V14.01,2013-03-03 14:01:00,
2013-03-03 09:06:00,29.4,16.9,29.70,North,0,8.0,15.0,59,0.00,,BKN085,0.00,VWS V14.01,2013-03-03 14:06:00,
2013-03-03 09:11:00,29.5,17.0,29.70,NNW,328,0.0,15.0,59,0.00,,BKN085,0.00,VWS V14.01,2013-03-03 14:11:00,
2013-03-03 09:16:00,29.7,16.4,29.70,North,0,2.0,14.0,57,0.00,,BKN085,0.00,VWS V14.01,2013-03-03 14:16:00,
2013-03-03 09:21:00,29.8,16.8,29.70,NNW,335,2.0,15.0,58,0.00,,BKN085,0.00,VWS V14.01,2013-03-03 14:21:00,
2013-03-03 09:26:00,30.0,17.4,29.70,NW,310,6.0,6.0,59,0.00,,BKN085,0.00,VWS V14.01,2013-03-03 14:26:00,
2013-03-03 09:31:00,30.3,17.7,29.70,WNW,292,5.0,6.0,59,0.00,,BKN085,0.00,VWS V14.01,2013-03-03 14:31:00,
2013-03-03 09:36:00,30.6,17.6,29.69,North,0,6.0,8.0,58,0.00,,OVC033,0.00,VWS V14.01,2013-03-03 14:36:00,
2013-03-03 09:41:00,30.7,17.7,29.69,NNW,328,4.0,14.0,58,0.00,,OVC033,0.00,VWS V14.01,2013-03-03 14:41:00,
2013-03-03 09:46:00,30.7,17.3,29.70,WNW,294,4.0,12.0,57,0.00,,OVC033,0.00,VWS V14.01,2013-03-03 14:46:00,
2013-03-03 09:51:00,30.6,17.6,29.70,NNW,339,4.0,6.0,58,0.00,,OVC033,0.00,VWS V14.01,2013-03-03 14:51:00,
2013-03-03 09:56:00,30.6,17.6,29.70,NNE,12,6.0,7.0,58,0.00,,OVC031,0.00,VWS V14.01,2013-03-03 14:56:00,
2013-03-03 10:01:00,30.4,17.0,29.70,NNE,23,7.0,9.0,57,0.00,,OVC031,0.00,VWS V14.01,2013-03-03 15:01:00,
2013-03-03 10:06:00,30.4,17.4,29.69,North,0,5.0,10.0,58,0.00,,OVC031,0.00,VWS V14.01,2013-03-03 15:06:00,
2013-03-03 10:11:00,30.7,17.7,29.69,NNW,344,4.0,7.0,58,0.00,,OVC031,0.00,VWS V14.01,2013-03-03 15:11:00,
2013-03-03 10:16:00,31.0,18.0,29.69,NW,315,5.0,5.0,58,0.00,,OVC031,0.00,VWS V14.01,2013-03-03 15:16:00,
2013-03-03 10:21:00,31.2,18.5,29.69,NNW,347,0.0,9.0,59,0.00,,OVC031,0.00,VWS V14.01,2013-03-03 15:21:00,
2013-03-03 10:26:00,31.3,18.2,29.69,NW,311,1.0,12.0,58,0.00,,OVC031,0.00,VWS V14.01,2013-03-03 15:26:00,
2013-03-03 10:31:00,31.2,17.3,29.69,North,353,8.0,15.0,56,0.00,,OVC031,0.00,VWS V14.01,2013-03-03 15:31:00,
2013-03-03 10:36:00,31.0,17.6,29.69,NNW,330,5.0,9.0,57,0.00,,OVC033,0.00,VWS V14.01,2013-03-03 15:36:00,
2013-03-03 10:41:00,31.2,18.5,29.69,WNW,302,6.0,8.0,59,0.00,,OVC033,0.00,VWS V14.01,2013-03-03 15:41:00,
2013-03-03 10:46:00,31.9,18.4,29.69,NNW,331,7.0,9.0,57,0.00,,OVC033,0.00,VWS V14.01,2013-03-03 15:46:00,
2013-03-03 10:51:00,31.9,18.0,29.69,NW,310,7.0,9.0,56,0.00,,OVC033,0.00,VWS V14.01,2013-03-03 15:51:00,
2013-03-03 10:56:00,31.6,17.3,29.69,NW,316,3.0,13.0,55,0.00,,OVC035,0.00,VWS V14.01,2013-03-03 15:56:00,
2013-03-03 11:01:00,31.9,18.4,29.69,NNW,336,4.0,11.0,57,0.00,,OVC035,0.00,VWS V14.01,2013-03-03 16:01:00,
2013-03-03 11:06:00,32.1,18.2,29.69,NW,316,5.0,12.0,56,0.00,,OVC035,0.00,VWS V14.01,2013-03-03 16:06:00,
2013-03-03 11:11:00,32.1,17.3,29.69,NW,321,6.0,13.0,54,0.00,,OVC035,0.00,VWS V14.01,2013-03-03 16:11:00,
2013-03-03 11:16:00,32.2,18.7,29.69,NNW,329,5.0,9.0,57,0.00,,OVC035,0.00,VWS V14.01,2013-03-03 16:16:00,
2013-03-03 11:21:00,32.5,17.7,29.68,NNE,13,4.0,11.0,54,0.00,,OVC035,0.00,VWS V14.01,2013-03-03 16:21:00,
2013-03-03 11:26:00,32.7,18.3,29.68,NNW,336,4.0,14.0,55,0.00,,OVC035,0.00,VWS V14.01,2013-03-03 16:26:00,
2013-03-03 11:31:00,32.5,17.7,29.68,North,358,7.0,11.0,54,0.00,,OVC035,0.00,VWS V14.01,2013-03-03 16:31:00,
2013-03-03 11:36:00,32.9,18.5,29.68,West,278,6.0,8.0,55,0.00,,OVC095,0.00,VWS V14.01,2013-03-03 16:36:00,
2013-03-03 11:41:00,33.7,18.4,29.68,WNW,290,1.0,9.0,53,0.00,,OVC095,0.00,VWS V14.01,2013-03-03 16:41:00,
2013-03-03 11:46:00,33.5,18.2,29.68,NW,315,11.0,15.0,53,0.00,,OVC095,0.00,VWS V14.01,2013-03-03 16:46:00,
2013-03-03 11:51:00,33.2,17.9,29.68,North,356,3.0,11.0,53,0.00,,OVC095,0.00,VWS V14.01,2013-03-03 16:51:00,
2013-03-03 11:56:00,32.9,16.8,29.68,North,1,6.0,11.0,51,0.00,,OVC095,0.00,VWS V14.01,2013-03-03 16:56:00,
2013-03-03 12:01:00,32.8,16.7,29.68,WNW,294,0.0,14.0,51,0.00,,OVC095,0.00,VWS V14.01,2013-03-03 17:01:00,
2013-03-03 12:06:00,33.4,17.7,29.68,WNW,289,7.0,8.0,52,0.00,,OVC095,0.00,VWS V14.01,2013-03-03 17:06:00,
2013-03-03 12:11:00,33.4,17.7,29.68,North,358,4.0,13.0,52,0.00,,OVC095,0.00,VWS V14.01,2013-03-03 17:11:00,
2013-03-03 12:16:00,33.4,17.2,29.68,North,352,4.0,9.0,51,0.00,,OVC095,0.00,VWS V14.01,2013-03-03 17:16:00,
2013-03-03 12:21:00,33.5,18.2,29.67,NNW,348,6.0,12.0,53,0.00,,OVC095,0.00,VWS V14.01,2013-03-03 17:21:00,
2013-03-03 12:26:00,33.8,18.5,29.67,WNW,300,8.0,13.0,53,0.00,,OVC095,0.00,VWS V14.01,2013-03-03 17:26:00,
2013-03-03 12:31:00,34.0,17.8,29.67,WNW,301,7.0,10.0,51,0.00,,OVC095,0.00,VWS V14.01,2013-03-03 17:31:00,
2013-03-03 12:36:00,34.3,18.1,29.67,NW,318,4.0,12.0,51,0.00,,OVC095,0.00,VWS V14.01,2013-03-03 17:36:00,
2013-03-03 12:41:00,34.1,17.9,29.67,North,358,5.0,9.0,51,0.00,,OVC095,0.00,VWS V14.01,2013-03-03 17:41:00,
2013-03-03 12:46:00,34.6,17.4,29.67,WNW,298,1.0,13.0,49,0.00,,OVC095,0.00,VWS V14.01,2013-03-03 17:46:00,
2013-03-03 12:51:00,34.4,17.7,29.66,WNW,300,4.0,13.0,50,0.00,,OVC095,0.00,VWS V14.01,2013-03-03 17:51:00,
2013-03-03 12:56:00,34.4,19.0,29.66,NW,318,6.0,10.0,53,0.00,,OVC039,0.00,VWS V14.01,2013-03-03 17:56:00,
2013-03-03 13:01:00,34.9,20.0,29.66,WNW,288,5.0,11.0,54,0.00,,OVC039,0.00,VWS V14.01,2013-03-03 18:01:00,
2013-03-03 13:06:00,34.7,18.9,29.66,North,357,5.0,9.0,52,0.00,,OVC039,0.00,VWS V14.01,2013-03-03 18:06:00,
2013-03-03 13:11:00,34.9,20.0,29.66,WNW,282,6.0,11.0,54,0.00,,OVC039,0.00,VWS V14.01,2013-03-03 18:11:00,
2013-03-03 13:16:00,34.9,18.6,29.66,NW,319,6.0,13.0,51,0.00,,OVC039,0.00,VWS V14.01,2013-03-03 18:16:00,
2013-03-03 13:21:00,34.1,19.2,29.66,WNW,300,12.0,12.0,54,0.00,,OVC039,0.00,VWS V14.01,2013-03-03 18:21:00,
2013-03-03 13:26:00,34.1,19.2,29.66,North,351,3.0,9.0,54,0.00,,OVC039,0.00,VWS V14.01,2013-03-03 18:26:00,
2013-03-03 13:31:00,34.4,19.5,29.66,West,263,8.0,10.0,54,0.00,,OVC039,0.00,VWS V14.01,2013-03-03 18:31:00,
2013-03-03 13:36:00,34.7,19.3,29.65,NW,307,8.0,14.0,53,0.00,,OVC039,0.00,VWS V14.01,2013-03-03 18:36:00,
2013-03-03 13:41:00,35.0,19.2,29.65,West,268,6.0,6.0,52,0.00,,OVC039,0.00,VWS V14.01,2013-03-03 18:41:00,
2013-03-03 13:46:00,35.0,19.2,29.65,WNW,297,4.0,7.0,52,0.00,,OVC039,0.00,VWS V14.01,2013-03-03 18:46:00,
2013-03-03 13:51:00,35.0,18.7,29.65,WNW,293,8.0,11.0,51,0.00,,OVC039,0.00,VWS V14.01,2013-03-03 18:51:00,
2013-03-03 13:56:00,35.0,19.6,29.65,North,352,6.0,9.0,53,0.00,,OVC039,0.00,VWS V14.01,2013-03-03 18:56:00,
2013-03-03 14:01:00,34.9,19.5,29.65,North,358,4.0,9.0,53,0.00,,OVC039,0.00,VWS V14.01,2013-03-03 19:01:00,
2013-03-03 14:06:00,34.7,19.3,29.65,West,276,3.0,9.0,53,0.00,,OVC039,0.00,VWS V14.01,2013-03-03 19:06:00,
2013-03-03 14:11:00,34.7,19.8,29.65,NW,313,5.0,13.0,54,0.00,,OVC039,0.00,VWS V14.01,2013-03-03 19:11:00,
2013-03-03 14:16:00,34.4,18.2,29.65,West,267,6.0,9.0,51,0.00,,OVC039,0.00,VWS V14.01,2013-03-03 19:16:00,
2013-03-03 14:21:00,34.4,19.0,29.65,WNW,294,7.0,9.0,53,0.00,,OVC039,0.00,VWS V14.01,2013-03-03 19:21:00,
2013-03-03 14:26:00,34.4,18.6,29.65,WNW,290,3.0,12.0,52,0.00,,OVC039,0.00,VWS V14.01,2013-03-03 19:26:00,
2013-03-03 14:31:00,34.7,19.8,29.65,WNW,285,3.0,8.0,54,0.00,,OVC039,0.00,VWS V14.01,2013-03-03 19:31:00,
2013-03-03 14:36:00,34.6,19.2,29.65,WNW,290,0.0,8.0,53,0.00,,OVC037,0.00,VWS V14.01,2013-03-03 19:36:00,
2013-03-03 14:41:00,34.6,19.2,29.65,NNW,335,5.0,14.0,53,0.00,,OVC037,0.00,VWS V14.01,2013-03-03 19:41:00,
2013-03-03 14:46:00,34.6,19.2,29.65,WNW,291,9.0,13.0,53,0.00,,OVC037,0.00,VWS V14.01,2013-03-03 19:46:00,
2013-03-03 14:51:00,34.9,20.0,29.65,North,0,5.0,10.0,54,0.00,,OVC037,0.00,VWS V14.01,2013-03-03 19:51:00,
2013-03-03 14:56:00,34.9,20.0,29.65,North,356,6.0,8.0,54,0.00,,OVC039,0.00,VWS V14.01,2013-03-03 19:56:00,
2013-03-03 15:01:00,34.9,19.5,29.65,NW,315,4.0,8.0,53,0.00,,OVC039,0.00,VWS V14.01,2013-03-03 20:01:00,
2013-03-03 15:06:00,35.3,19.5,29.65,NW,309,7.0,14.0,52,0.00,,OVC039,0.00,VWS V14.01,2013-03-03 20:06:00,
2013-03-03 15:11:00,35.8,20.4,29.65,NNW,338,9.0,11.0,53,0.00,,OVC039,0.00,VWS V14.01,2013-03-03 20:11:00,
2013-03-03 15:16:00,35.3,19.5,29.65,WNW,297,10.0,12.0,52,0.00,,OVC039,0.00,VWS V14.01,2013-03-03 20:16:00,
2013-03-03 15:21:00,34.9,18.6,29.64,NW,305,7.0,12.0,51,0.00,,OVC039,0.00,VWS V14.01,2013-03-03 20:21:00,
2013-03-03 15:26:00,34.9,19.1,29.64,North,0,7.0,10.0,52,0.00,,OVC039,0.00,VWS V14.01,2013-03-03 20:26:00,
2013-03-03 15:31:00,34.6,18.3,29.64,WNW,300,4.0,13.0,51,0.00,,OVC039,0.00,VWS V14.01,2013-03-03 20:31:00,
2013-03-03 15:36:00,34.6,19.2,29.65,NW,316,8.0,8.0,53,0.00,,OVC037,0.00,VWS V14.01,2013-03-03 20:36:00,
2013-03-03 15:41:00,34.7,19.3,29.65,NW,314,0.0,8.0,53,0.00,,OVC037,0.00,VWS V14.01,2013-03-03 20:41:00,
2013-03-03 15:46:00,34.7,18.9,29.65,NNW,337,5.0,13.0,52,0.00,,OVC037,0.00,VWS V14.01,2013-03-03 20:46:00,
2013-03-03 15:51:00,35.0,19.2,29.64,NNW,332,5.0,10.0,52,0.00,,OVC037,0.00,VWS V14.01,2013-03-03 20:51:00,
2013-03-03 15:56:00,35.2,19.4,29.64,NNW,336,4.0,9.0,52,0.00,,BKN037,0.00,VWS V14.01,2013-03-03 20:56:00,
2013-03-03 16:01:00,35.2,18.9,29.64,WNW,298,1.0,12.0,51,0.00,,BKN037,0.00,VWS V14.01,2013-03-03 21:01:00,
2013-03-03 16:06:00,36.2,19.8,29.65,WNW,294,2.0,9.0,51,0.00,,BKN037,0.00,VWS V14.01,2013-03-03 21:06:00,
2013-03-03 16:11:00,36.3,18.5,29.65,NW,323,4.0,11.0,48,0.00,,BKN037,0.00,VWS V14.01,2013-03-03 21:11:00,
2013-03-03 16:16:00,35.5,18.7,29.65,NW,307,6.0,8.0,50,0.00,,BKN037,0.00,VWS V14.01,2013-03-03 21:16:00,
2013-03-03 16:21:00,35.2,18.9,29.65,NW,307,0.0,8.0,51,0.00,,BKN037,0.00,VWS V14.01,2013-03-03 21:21:00,
2013-03-03 16:26:00,35.2,18.0,29.65,NW,309,4.0,12.0,49,0.00,,BKN037,0.00,VWS V14.01,2013-03-03 21:26:00,
2013-03-03 16:31:00,35.3,19.0,29.65,NNW,338,4.0,10.0,51,0.00,,BKN037,0.00,VWS V14.01,2013-03-03 21:31:00,
2013-03-03 16:36:00,35.5,18.7,29.65,North,350,6.0,11.0,50,0.00,,CLR,0.00,VWS V14.01,2013-03-03 21:36:00,
2013-03-03 16:41:00,35.2,18.9,29.65,NW,307,4.0,9.0,51,0.00,,CLR,0.00,VWS V14.01,2013-03-03 21:41:00,
2013-03-03 16:46:00,34.7,18.4,29.65,NNW,342,1.0,10.0,51,0.00,,CLR,0.00,VWS V14.01,2013-03-03 21:46:00,
2013-03-03 16:51:00,34.4,18.6,29.65,NW,326,0.0,10.0,52,0.00,,CLR,0.00,VWS V14.01,2013-03-03 21:51:00,
2013-03-03 16:56:00,34.3,18.1,29.65,NNW,333,6.0,9.0,51,0.00,,SCT055,0.00,VWS V14.01,2013-03-03 21:56:00,
2013-03-03 17:01:00,34.1,17.9,29.65,NW,321,5.0,8.0,51,0.00,,SCT055,0.00,VWS V14.01,2013-03-03 22:01:00,
2013-03-03 17:06:00,34.1,17.9,29.66,NNW,329,1.0,9.0,51,0.00,,SCT055,0.00,VWS V14.01,2013-03-03 22:06:00,
2013-03-03 17:11:00,34.1,18.3,29.66,NNW,332,1.0,7.0,52,0.00,,SCT055,0.00,VWS V14.01,2013-03-03 22:11:00,
2013-03-03 17:16:00,34.1,17.9,29.66,North,354,5.0,7.0,51,0.00,,SCT055,0.00,VWS V14.01,2013-03-03 22:16:00,
2013-03-03 17:21:00,34.3,18.5,29.66,NNW,344,1.0,5.0,52,0.00,,SCT055,0.00,VWS V14.01,2013-03-03 22:21:00,
2013-03-03 17:26:00,34.3,19.0,29.66,NW,313,0.0,7.0,53,0.00,,SCT055,0.00,VWS V14.01,2013-03-03 22:26:00,
2013-03-03 17:31:00,34.3,19.0,29.66,NNW,343,0.0,8.0,53,0.00,,SCT055,0.00,VWS V14.01,2013-03-03 22:31:00,
2013-03-03 17:36:00,34.1,18.8,29.66,NW,317,2.0,5.0,53,0.00,,OVC055,0.00,VWS V14.01,2013-03-03 22:36:00,
2013-03-03 17:41:00,34.1,18.3,29.66,NW,309,4.0,6.0,52,0.00,,OVC055,0.00,VWS V14.01,2013-03-03 22:41:00,
2013-03-03 17:46:00,34.1,17.9,29.66,WSW,250,6.0,15.0,51,0.00,,OVC055,0.00,VWS V14.01,2013-03-03 22:46:00,
2013-03-03 17:51:00,34.1,18.3,29.66,NW,316,5.0,11.0,52,0.00,,OVC055,0.00,VWS V14.01,2013-03-03 22:51:00,
2013-03-03 17:56:00,34.1,17.9,29.66,WNW,298,0.0,7.0,51,0.00,,OVC055,0.00,VWS V14.01,2013-03-03 22:56:00,
2013-03-03 18:01:00,34.0,17.8,29.66,NW,319,7.0,8.0,51,0.00,,OVC055,0.00,VWS V14.01,2013-03-03 23:01:00,
2013-03-03 18:06:00,34.0,18.2,29.66,WNW,295,4.0,8.0,52,0.00,,OVC055,0.00,VWS V14.01,2013-03-03 23:06:00,
2013-03-03 18:11:00,34.0,18.2,29.66,NW,317,1.0,13.0,52,0.00,,OVC055,0.00,VWS V14.01,2013-03-03 23:11:00,
2013-03-03 18:16:00,33.8,18.5,29.67,NW,311,2.0,11.0,53,0.00,,OVC055,0.00,VWS V14.01,2013-03-03 23:16:00,
2013-03-03 18:21:00,33.5,18.6,29.67,NW,305,0.0,8.0,54,0.00,,OVC055,0.00,VWS V14.01,2013-03-03 23:21:00,
2013-03-03 18:26:00,33.4,17.7,29.67,NNW,329,4.0,14.0,52,0.00,,OVC055,0.00,VWS V14.01,2013-03-03 23:26:00,
2013-03-03 18:31:00,33.2,18.4,29.67,NNW,328,2.0,6.0,54,0.00,,OVC055,0.00,VWS V14.01,2013-03-03 23:31:00,
2013-03-03 18:36:00,33.1,18.3,29.68,WNW,290,5.0,9.0,54,0.00,,OVC070,0.00,VWS V14.01,2013-03-03 23:36:00,
2013-03-03 18:41:00,33.1,17.8,29.68,WNW,288,3.0,8.0,53,0.00,,OVC070,0.00,VWS V14.01,2013-03-03 23:41:00,
2013-03-03 18:46:00,32.9,18.5,29.68,NW,326,0.0,4.0,55,0.00,,OVC070,0.00,VWS V14.01,2013-03-03 23:46:00,
2013-03-03 18:51:00,32.9,18.1,29.68,NW,316,2.0,7.0,54,0.00,,OVC070,0.00,VWS V14.01,2013-03-03 23:51:00,
2013-03-03 18:56:00,32.9,18.1,29.68,NW,317,2.0,7.0,54,0.00,,OVC043,0.00,VWS V14.01,2013-03-03 23:56:00,
2013-03-03 19:01:00,32.8,18.0,29.69,NW,326,4.0,7.0,54,0.00,,OVC043,0.00,VWS V14.01,2013-03-04 00:01:00,
2013-03-03 19:06:00,32.7,18.3,29.69,NW,315,6.0,7.0,55,0.00,,BKN043,0.00,VWS V14.01,2013-03-04 00:06:00,
2013-03-03 19:11:00,32.7,17.9,29.69,NNW,333,0.0,6.0,54,0.00,,BKN043,0.00,VWS V14.01,2013-03-04 00:11:00,
2013-03-03 19:16:00,32.7,18.3,29.69,NNW,335,6.0,6.0,55,0.00,,BKN043,0.00,VWS V14.01,2013-03-04 00:16:00,
2013-03-03 19:21:00,32.7,18.3,29.69,NW,313,0.0,7.0,55,0.00,,BKN043,0.00,VWS V14.01,2013-03-04 00:21:00,
2013-03-03 19:26:00,32.7,18.3,29.69,NW,304,0.0,4.0,55,0.00,,BKN043,0.00,VWS V14.01,2013-03-04 00:26:00,
2013-03-03 19:31:00,32.7,18.3,29.69,NW,315,5.0,5.0,55,0.00,,BKN043,0.00,VWS V14.01,2013-03-04 00:31:00,
2013-03-03 19:36:00,32.7,17.9,29.69,WNW,292,0.0,2.0,54,0.00,,BKN080,0.00,VWS V14.01,2013-03-04 00:36:00,
2013-03-03 19:41:00,32.7,18.3,29.69,NNW,345,0.0,5.0,55,0.00,,BKN080,0.00,VWS V14.01,2013-03-04 00:41:00,
2013-03-03 19:46:00,32.7,18.3,29.69,NW,320,2.0,4.0,55,0.00,,BKN080,0.00,VWS V14.01,2013-03-04 00:46:00,
2013-03-03 19:51:00,32.7,18.3,29.69,NW,325,0.0,3.0,55,0.00,,BKN080,0.00,VWS V14.01,2013-03-04 00:51:00,
2013-03-03 19:56:00,32.5,18.6,29.69,NNW,336,0.0,7.0,56,0.00,,OVC080,0.00,VWS V14.01,2013-03-04 00:56:00,
2013-03-03 20:01:00,32.5,18.1,29.69,WNW,288,0.0,6.0,55,0.00,,OVC080,0.00,VWS V14.01,2013-03-04 01:01:00,
2013-03-03 20:06:00,32.5,18.6,29.69,NW,307,1.0,4.0,56,0.00,,OVC080,0.00,VWS V14.01,2013-03-04 01:06:00,
2013-03-03 20:11:00,32.5,18.1,29.69,NW,318,0.0,6.0,55,0.00,,OVC080,0.00,VWS V14.01,2013-03-04 01:11:00,
2013-03-03 20:16:00,32.5,18.1,29.70,NW,309,0.0,6.0,55,0.00,,OVC080,0.00,VWS V14.01,2013-03-04 01:16:00,
2013-03-03 20:21:00,32.5,18.1,29.70,NW,316,0.0,6.0,55,0.00,,OVC080,0.00,VWS V14.01,2013-03-04 01:21:00,
2013-03-03 20:26:00,32.4,18.5,29.70,NNW,339,0.0,6.0,56,0.00,,OVC080,0.00,VWS V14.01,2013-03-04 01:26:00,
2013-03-03 20:31:00,32.2,18.3,29.70,WNW,291,2.0,4.0,56,0.00,,OVC080,0.00,VWS V14.01,2013-03-04 01:31:00,
2013-03-03 20:36:00,32.2,18.7,29.70,WNW,302,0.0,6.0,57,0.00,,OVC080,0.00,VWS V14.01,2013-03-04 01:36:00,
2013-03-03 20:41:00,32.2,18.3,29.70,NW,323,5.0,8.0,56,0.00,,OVC080,0.00,VWS V14.01,2013-03-04 01:41:00,
2013-03-03 20:46:00,32.2,18.7,29.71,NW,314,2.0,6.0,57,0.00,,OVC080,0.00,VWS V14.01,2013-03-04 01:46:00,
2013-03-03 20:51:00,32.4,18.9,29.71,NW,304,1.0,7.0,57,0.00,,OVC080,0.00,VWS V14.01,2013-03-04 01:51:00,
2013-03-03 20:56:00,32.4,18.5,29.71,NW,305,5.0,7.0,56,0.00,,OVC070,0.00,VWS V14.01,2013-03-04 01:56:00,
2013-03-03 21:01:00,32.4,18.5,29.71,NW,323,4.0,7.0,56,0.00,,OVC070,0.00,VWS V14.01,2013-03-04 02:01:00,
2013-03-03 21:06:00,32.4,18.9,29.71,NW,322,5.0,5.0,57,0.00,,OVC070,0.00,VWS V14.01,2013-03-04 02:06:00,
2013-03-03 21:11:00,32.4,18.9,29.71,NNW,345,1.0,5.0,57,0.00,,OVC070,0.00,VWS V14.01,2013-03-04 02:11:00,
2013-03-03 21:16:00,32.4,18.9,29.71,North,358,2.0,8.0,57,0.00,,OVC070,0.00,VWS V14.01,2013-03-04 02:16:00,
2013-03-03 21:21:00,32.4,18.5,29.71,NW,326,5.0,11.0,56,0.00,,OVC070,0.00,VWS V14.01,2013-03-04 02:21:00,
2013-03-03 21:26:00,32.4,18.5,29.71,NNW,343,2.0,9.0,56,0.00,,OVC070,0.00,VWS V14.01,2013-03-04 02:26:00,
2013-03-03 21:31:00,32.4,18.5,29.71,NW,309,2.0,8.0,56,0.00,,OVC070,0.00,VWS V14.01,2013-03-04 02:31:00,
2013-03-03 21:36:00,32.4,18.5,29.71,WNW,294,4.0,7.0,56,0.00,,OVC070,0.00,VWS V14.01,2013-03-04 02:36:00,
2013-03-03 21:41:00,32.4,18.9,29.71,North,352,4.0,7.0,57,0.00,,OVC070,0.00,VWS V14.01,2013-03-04 02:41:00,
2013-03-03 21:46:00,32.2,18.7,29.71,NW,308,2.0,9.0,57,0.00,,OVC070,0.00,VWS V14.01,2013-03-04 02:46:00,
2013-03-03 21:51:00,32.2,18.3,29.71,NW,314,0.0,10.0,56,0.00,,OVC070,0.00,VWS V14.01,2013-03-04 02:51:00,
2013-03-03 21:56:00,32.2,18.7,29.71,WNW,296,6.0,11.0,57,0.00,,OVC070,0.00,VWS V14.01,2013-03-04 02:56:00,
2013-03-03 22:01:00,32.1,17.8,29.71,WNW,289,6.0,6.0,55,0.00,,OVC070,0.00,VWS V14.01,2013-03-04 03:01:00,
2013-03-03 22:06:00,32.1,18.2,29.71,North,0,2.0,10.0,56,0.00,,OVC070,0.00,VWS V14.01,2013-03-04 03:06:00,
2013-03-03 22:11:00,31.9,18.0,29.71,NNW,348,5.0,8.0,56,0.00,,OVC070,0.00,VWS V14.01,2013-03-04 03:11:00,
2013-03-03 22:16:00,31.9,18.0,29.71,North,356,6.0,10.0,56,0.00,,OVC070,0.00,VWS V14.01,2013-03-04 03:16:00,
2013-03-03 22:21:00,31.8,17.9,29.71,North,353,0.0,11.0,56,0.00,,OVC070,0.00,VWS V14.01,2013-03-04 03:21:00,
2013-03-03 22:26:00,31.6,18.1,29.71,North,10,6.0,8.0,57,0.00,,OVC070,0.00,VWS V14.01,2013-03-04 03:26:00,
2013-03-03 22:31:00,31.6,17.7,29.71,North,0,10.0,10.0,56,0.00,,OVC070,0.00,VWS V14.01,2013-03-04 03:31:00,
2013-03-03 22:36:00,31.5,17.6,29.71,NNW,333,3.0,12.0,56,0.00,,OVC065,0.00,VWS V14.01,2013-03-04 03:36:00,
2013-03-03 22:41:00,31.5,17.6,29.71,NNW,342,4.0,10.0,56,0.00,,OVC065,0.00,VWS V14.01,2013-03-04 03:41:00,
2013-03-03 22:46:00,31.5,17.6,29.72,North,356,6.0,10.0,56,0.00,,OVC065,0.00,VWS V14.01,2013-03-04 03:46:00,
2013-03-03 22:51:00,31.3,17.4,29.72,NNW,346,4.0,10.0,56,0.00,,OVC065,0.00,VWS V14.01,2013-03-04 03:51:00,
2013-03-03 22:56:00,31.3,17.9,29.72,WNW,296,5.0,9.0,57,0.00,,OVC065,0.00,VWS V14.01,2013-03-04 03:56:00,
2013-03-03 23:01:00,31.3,17.9,29.72,North,11,2.0,7.0,57,0.00,,OVC065,0.00,VWS V14.01,2013-03-04 04:01:00,
2013-03-03 23:06:00,31.3,17.9,29.72,NNW,345,2.0,7.0,57,0.00,,OVC065,0.00,VWS V14.01,2013-03-04 04:06:00,
2013-03-03 23:11:00,31.3,17.9,29.72,NW,321,0.0,7.0,57,0.00,,OVC065,0.00,VWS V14.01,2013-03-04 04:11:00,
2013-03-03 23:16:00,31.2,17.8,29.72,NNW,347,7.0,9.0,57,0.00,,OVC065,0.00,VWS V14.01,2013-03-04 04:16:00,
2013-03-03 23:21:00,31.2,17.8,29.72,North,349,6.0,11.0,57,0.00,,OVC065,0.00,VWS V14.01,2013-03-04 04:21:00,
2013-03-03 23:26:00,31.2,17.8,29.72,NW,309,2.0,10.0,57,0.00,,OVC065,0.00,VWS V14.01,2013-03-04 04:26:00,
2013-03-03 23:32:00,31.2,18.2,29.72,NNW,328,0.0,11.0,58,0.00,,OVC065,0.00,VWS V14.01,2013-03-04 04:32:00,
2013-03-03 23:37:00,31.0,18.0,29.72,NW,308,5.0,8.0,58,0.00,,OVC038,0.00,VWS V14.01,2013-03-04 04:37:00,
2013-03-03 23:42:00,31.0,17.6,29.72,North,358,4.0,8.0,57,0.00,,OVC038,0.00,VWS V14.01,2013-03-04 04:42:00,
2013-03-03 23:47:00,31.0,18.0,29.72,North,0,5.0,8.0,58,0.00,,OVC038,0.00,VWS V14.01,2013-03-04 04:47:00,
2013-03-03 23:52:00,30.9,18.3,29.72,NNW,336,0.0,7.0,59,0.00,,OVC038,0.00,VWS V14.01,2013-03-04 04:52:00,
2013-03-03 23:57:00,30.9,17.9,29.72,NNW,345,1.0,7.0,58,0.00,,OVC038,0.00,VWS V14.01,2013-03-04 04:57:00,